createdAt,value
2023-05-15T00:01:00.154Z,9.44
2023-05-15T00:03:27.681Z,9.45
2023-05-15T00:05:55.153Z,9.45
2023-05-15T00:08:22.154Z,9.42
2023-05-15T00:11:00.959Z,9.40
2023-05-15T00:13:29.007Z,9.37
2023-05-15T00:15:55.920Z,9.35
2023-05-15T00:18:22.875Z,9.33
2023-05-15T00:20:49.819Z,9.34
2023-05-15T00:23:16.672Z,9.32
2023-05-15T00:25:43.607Z,9.30
2023-05-15T00:28:10.557Z,9.28
2023-05-15T00:30:37.510Z,9.25
2023-05-15T00:33:04.379Z,9.24
2023-05-15T00:35:32.411Z,9.26
2023-05-15T00:37:59.306Z,9.28
2023-05-15T00:40:26.304Z,9.32
2023-05-15T00:42:53.368Z,9.39
2023-05-15T00:45:20.708Z,9.41
2023-05-15T00:47:47.811Z,9.38
2023-05-15T00:50:14.902Z,9.37
2023-05-15T00:52:41.857Z,9.33
2023-05-15T00:55:09.241Z,9.32
2023-05-15T00:57:36.246Z,9.29
2023-05-15T01:00:10.382Z,9.24
2023-05-15T01:02:37.924Z,9.23
2023-05-15T01:05:07.654Z,9.20
2023-05-15T01:07:37.440Z,9.27
2023-05-15T01:10:05.006Z,9.31
2023-05-15T01:12:32.352Z,9.31
2023-05-15T01:14:59.227Z,9.32
2023-05-15T01:17:27.610Z,9.37
2023-05-15T01:19:54.836Z,9.36
2023-05-15T01:22:35.901Z,9.31
2023-05-15T01:25:11.965Z,9.24
2023-05-15T01:27:55.299Z,9.17
2023-05-15T01:30:34.461Z,9.08
2023-05-15T01:33:06.234Z,9.00
2023-05-15T01:35:44.278Z,8.93
2023-05-15T01:38:11.325Z,8.85
2023-05-15T01:40:38.273Z,8.77
2023-05-15T01:43:10.090Z,8.71
2023-05-15T01:45:37.481Z,8.69
2023-05-15T01:48:07.450Z,8.65
2023-05-15T01:50:35.182Z,8.65
2023-05-15T01:53:02.305Z,8.63
2023-05-15T01:55:29.659Z,8.65
2023-05-15T01:57:58.037Z,8.66
2023-05-15T02:00:24.982Z,8.65
2023-05-15T02:02:52.130Z,8.59
2023-05-15T02:05:19.280Z,8.52
2023-05-15T02:07:47.276Z,8.45
2023-05-15T02:10:15.326Z,8.43
2023-05-15T02:12:46.972Z,8.39
2023-05-15T02:15:13.918Z,8.38
2023-05-15T02:17:40.875Z,8.36
2023-05-15T02:20:08.724Z,8.33
2023-05-15T02:22:38.132Z,8.34
2023-05-15T02:25:06.228Z,8.42
2023-05-15T02:27:48.204Z,8.46
2023-05-15T02:30:30.805Z,8.52
2023-05-15T02:33:17.010Z,8.61
2023-05-15T02:35:49.581Z,8.68
2023-05-15T02:38:17.280Z,8.75
2023-05-15T02:40:45.314Z,8.86
2023-05-15T02:43:12.359Z,8.98
2023-05-15T02:45:39.981Z,9.04
2023-05-15T02:48:07.293Z,9.09
2023-05-15T02:50:34.413Z,9.14
2023-05-15T02:53:02.633Z,9.17
2023-05-15T02:55:29.947Z,9.19
2023-05-15T02:57:57.708Z,9.20
2023-05-15T03:00:24.622Z,9.20
2023-05-15T03:02:51.827Z,9.23
2023-05-15T03:05:18.851Z,9.27
2023-05-15T03:07:45.897Z,9.32
2023-05-15T03:10:12.842Z,9.38
2023-05-15T03:12:39.890Z,9.43
2023-05-15T03:15:07.755Z,9.50
2023-05-15T03:17:34.720Z,9.58
2023-05-15T03:20:01.648Z,9.67
2023-05-15T03:22:28.539Z,9.78
2023-05-15T03:24:55.526Z,9.89
2023-05-15T03:27:22.395Z,9.99
2023-05-15T03:29:51.157Z,10.10
2023-05-15T03:32:18.359Z,10.22
2023-05-15T03:34:45.351Z,10.34
2023-05-15T03:37:12.311Z,10.50
2023-05-15T03:39:39.344Z,10.65
2023-05-15T03:42:07.109Z,10.81
2023-05-15T03:44:34.261Z,10.98
2023-05-15T03:47:01.294Z,11.18
2023-05-15T03:49:28.307Z,11.41
2023-05-15T03:51:56.435Z,11.74
2023-05-15T03:54:23.575Z,12.13
2023-05-15T03:56:51.741Z,12.53
2023-05-15T03:59:19.011Z,12.95
2023-05-15T04:02:02.771Z,13.37
2023-05-15T04:04:31.017Z,13.72
2023-05-15T04:06:57.955Z,13.92
2023-05-15T04:09:24.819Z,14.11
2023-05-15T04:11:52.112Z,14.30
2023-05-15T04:14:19.096Z,14.49
2023-05-15T04:16:45.986Z,14.66
2023-05-15T04:19:13.091Z,14.84
2023-05-15T04:21:40.744Z,15.02
2023-05-15T04:24:07.996Z,15.20
2023-05-15T04:26:35.071Z,15.38
2023-05-15T04:29:04.545Z,15.54
2023-05-15T04:31:32.321Z,15.70
2023-05-15T04:33:59.458Z,15.87
2023-05-15T04:36:26.401Z,16.03
2023-05-15T04:38:53.385Z,16.21
2023-05-15T04:41:21.023Z,16.33
2023-05-15T04:43:47.958Z,16.46
2023-05-15T04:46:15.716Z,16.60
2023-05-15T04:48:42.670Z,16.76
2023-05-15T04:51:09.620Z,16.93
2023-05-15T04:53:36.964Z,17.09
2023-05-15T04:56:04.110Z,17.23
2023-05-15T04:58:31.474Z,17.38
2023-05-15T05:00:58.411Z,17.60
2023-05-15T05:03:25.592Z,17.86
2023-05-15T05:05:52.603Z,18.07
2023-05-15T05:08:19.467Z,18.23
2023-05-15T05:10:46.340Z,18.44
2023-05-15T05:13:13.338Z,18.64
2023-05-15T05:15:40.260Z,18.93
2023-05-15T05:18:07.284Z,19.20
2023-05-15T05:20:34.378Z,19.40
2023-05-15T05:23:01.319Z,19.62
2023-05-15T05:25:28.275Z,19.71
2023-05-15T05:27:55.103Z,19.77
2023-05-15T05:30:22.594Z,19.91
2023-05-15T05:32:49.794Z,20.03
2023-05-15T05:35:16.863Z,20.21
2023-05-15T05:37:43.780Z,20.46
2023-05-15T05:40:11.376Z,20.65
2023-05-15T05:42:38.250Z,20.73
2023-05-15T05:45:07.089Z,20.79
2023-05-15T05:47:34.256Z,20.88
2023-05-15T05:50:01.179Z,21.01
2023-05-15T05:52:29.566Z,21.16
2023-05-15T05:54:56.515Z,21.25
2023-05-15T05:57:23.503Z,21.33
2023-05-15T05:59:50.497Z,21.29
2023-05-15T06:02:17.575Z,21.19
2023-05-15T06:04:44.701Z,21.12
2023-05-15T06:07:12.455Z,20.92
2023-05-15T06:09:39.416Z,20.87
2023-05-15T06:12:08.473Z,20.77
2023-05-15T06:14:36.175Z,20.77
2023-05-15T06:17:03.785Z,20.83
2023-05-15T06:19:30.761Z,20.90
2023-05-15T06:21:58.127Z,20.94
2023-05-15T06:24:25.065Z,20.98
2023-05-15T06:28:06.453Z,21.12
2023-05-15T06:30:33.544Z,21.09
2023-05-15T06:33:01.171Z,21.11
2023-05-15T06:35:28.310Z,21.24
2023-05-15T06:37:56.499Z,21.36
2023-05-15T06:40:26.445Z,21.40
2023-05-15T06:42:53.651Z,21.36
2023-05-15T06:45:20.747Z,21.40
2023-05-15T06:47:47.602Z,21.50
2023-05-15T06:50:14.696Z,21.61
2023-05-15T06:52:41.732Z,21.73
2023-05-15T06:55:08.987Z,21.85
2023-05-15T06:57:35.928Z,22.08
2023-05-15T07:00:02.874Z,22.25
2023-05-15T07:02:30.102Z,22.47
2023-05-15T07:04:57.224Z,22.71
2023-05-15T07:07:24.221Z,22.84
2023-05-15T07:09:51.176Z,22.87
2023-05-15T07:12:18.105Z,22.94
2023-05-15T07:14:45.052Z,23.14
2023-05-15T07:17:12.368Z,23.30
2023-05-15T07:19:39.435Z,23.36
2023-05-15T07:22:06.409Z,23.25
2023-05-15T07:24:33.340Z,23.10
2023-05-15T07:27:00.401Z,23.19
2023-05-15T07:29:27.328Z,23.34
2023-05-15T07:31:54.357Z,23.47
2023-05-15T07:34:21.429Z,23.64
2023-05-15T07:36:48.472Z,23.88
2023-05-15T07:39:16.176Z,23.98
2023-05-15T07:41:43.184Z,24.06
2023-05-15T07:44:10.841Z,24.23
2023-05-15T07:46:39.111Z,24.54
2023-05-15T07:49:06.372Z,24.69
2023-05-15T07:51:33.240Z,24.77
2023-05-15T07:54:00.153Z,24.76
2023-05-15T07:56:27.207Z,24.89
2023-05-15T07:58:54.326Z,25.04
2023-05-15T08:01:21.956Z,25.18
2023-05-15T08:03:48.919Z,25.32
2023-05-15T08:06:16.508Z,25.58
2023-05-15T08:08:44.071Z,25.71
2023-05-15T08:11:11.022Z,25.78
2023-05-15T08:13:38.163Z,25.86
2023-05-15T08:16:06.053Z,25.99
2023-05-15T08:18:33.048Z,25.95
2023-05-15T08:21:00.221Z,25.90
2023-05-15T08:23:27.180Z,26.14
2023-05-15T08:25:54.012Z,26.21
2023-05-15T08:28:20.954Z,26.15
2023-05-15T08:30:47.898Z,26.32
2023-05-15T08:33:15.299Z,26.22
2023-05-15T08:35:42.387Z,26.36
2023-05-15T08:38:09.349Z,26.49
2023-05-15T08:40:39.765Z,26.66
2023-05-15T08:43:14.050Z,26.99
2023-05-15T08:45:41.750Z,27.27
2023-05-15T08:48:14.465Z,27.36
2023-05-15T08:50:41.791Z,27.30
2023-05-15T08:53:08.791Z,27.37
2023-05-15T08:55:35.775Z,27.31
2023-05-15T08:58:02.721Z,27.19
2023-05-15T09:00:30.378Z,27.28
2023-05-15T09:03:02.525Z,27.60
2023-05-15T09:05:29.803Z,27.79
2023-05-15T09:07:57.356Z,28.01
2023-05-15T09:10:24.306Z,28.18
2023-05-15T09:12:51.766Z,28.23
2023-05-15T09:15:22.233Z,28.29
2023-05-15T09:17:50.245Z,28.59
2023-05-15T09:20:31.644Z,28.84
2023-05-15T09:22:59.668Z,28.90
2023-05-15T09:25:40.658Z,28.75
2023-05-15T09:28:09.778Z,28.45
2023-05-15T09:30:42.094Z,28.47
2023-05-15T09:33:09.490Z,28.66
2023-05-15T09:35:37.824Z,28.73
2023-05-15T09:38:11.590Z,28.53
2023-05-15T09:40:38.958Z,28.22
2023-05-15T09:43:06.107Z,28.18
2023-05-15T09:45:33.185Z,28.18
2023-05-15T09:48:01.193Z,28.30
2023-05-15T09:50:36.567Z,28.10
2023-05-15T09:53:03.899Z,27.88
2023-05-15T09:55:34.737Z,27.88
2023-05-15T09:58:08.844Z,28.05
2023-05-15T10:00:35.894Z,28.02
2023-05-15T10:03:03.946Z,28.22
2023-05-15T10:05:42.598Z,28.45
2023-05-15T10:08:11.060Z,28.58
2023-05-15T10:10:38.238Z,28.62
2023-05-15T10:13:06.233Z,28.64
2023-05-15T10:15:33.444Z,28.56
2023-05-15T10:18:01.239Z,28.36
2023-05-15T10:20:28.443Z,28.14
2023-05-15T10:22:56.625Z,28.22
2023-05-15T10:25:31.753Z,28.76
2023-05-15T10:27:59.108Z,29.35
2023-05-15T10:30:26.361Z,29.67
2023-05-15T10:32:53.895Z,29.71
2023-05-15T10:35:21.070Z,29.63
2023-05-15T10:37:49.250Z,29.41
2023-05-15T10:40:17.514Z,29.37
2023-05-15T10:42:45.964Z,29.37
2023-05-15T10:45:13.156Z,29.49
2023-05-15T10:47:41.098Z,29.53
2023-05-15T10:50:09.182Z,29.32
2023-05-15T10:52:36.557Z,29.39
2023-05-15T10:55:06.967Z,29.41
2023-05-15T10:57:33.874Z,29.62
2023-05-15T11:00:02.281Z,29.82
2023-05-15T11:02:33.560Z,29.90
2023-05-15T11:05:01.398Z,29.99
2023-05-15T11:07:28.554Z,29.80
2023-05-15T11:09:56.204Z,29.63
2023-05-15T11:12:23.354Z,29.65
2023-05-15T11:14:56.334Z,29.69
2023-05-15T11:17:23.607Z,29.70
2023-05-15T11:19:51.050Z,29.66
2023-05-15T11:22:20.412Z,29.50
2023-05-15T11:25:09.235Z,29.45
2023-05-15T11:27:43.718Z,29.36
2023-05-15T11:30:10.868Z,29.35
2023-05-15T11:32:47.533Z,29.54
2023-05-15T11:35:18.625Z,29.71
2023-05-15T11:37:57.058Z,29.84
2023-05-15T11:40:25.111Z,29.96
2023-05-15T11:43:22.833Z,30.10
2023-05-15T11:45:56.304Z,30.62
2023-05-15T11:48:24.820Z,31.18
2023-05-15T11:50:55.206Z,31.66
2023-05-15T11:53:23.405Z,31.97
2023-05-15T11:55:52.301Z,32.04
2023-05-15T11:58:20.065Z,32.29
2023-05-15T12:00:48.037Z,32.55
2023-05-15T12:03:36.555Z,32.87
2023-05-15T12:06:04.248Z,33.27
2023-05-15T12:08:35.705Z,33.37
2023-05-15T12:11:03.052Z,33.06
2023-05-15T12:13:31.569Z,32.54
2023-05-15T12:15:59.005Z,31.83
2023-05-15T12:18:26.356Z,31.43
2023-05-15T12:20:54.209Z,31.38
2023-05-15T12:23:23.564Z,31.18
2023-05-15T12:25:52.945Z,30.77
2023-05-15T12:28:19.858Z,30.59
2023-05-15T12:30:46.903Z,30.67
2023-05-15T12:33:13.882Z,30.76
2023-05-15T12:35:54.328Z,30.81
2023-05-15T12:38:22.579Z,30.85
2023-05-15T12:40:53.581Z,30.80
2023-05-15T12:43:21.492Z,30.73
2023-05-15T12:45:48.464Z,30.82
2023-05-15T12:48:15.686Z,30.97
2023-05-15T12:50:44.695Z,31.14
2023-05-15T12:53:13.627Z,31.26
2023-05-15T12:55:40.819Z,31.06
2023-05-15T12:58:09.449Z,30.83
2023-05-15T13:00:38.050Z,30.86
2023-05-15T13:03:05.340Z,30.83
2023-05-15T13:05:32.583Z,30.69
2023-05-15T13:07:59.991Z,30.70
2023-05-15T13:10:27.310Z,30.69
2023-05-15T13:12:55.050Z,30.78
2023-05-15T13:15:38.044Z,30.84
2023-05-15T13:18:07.677Z,30.67
2023-05-15T13:20:38.921Z,30.71
2023-05-15T13:23:06.206Z,30.95
2023-05-15T13:25:33.360Z,30.93
2023-05-15T13:28:01.504Z,30.82
2023-05-15T13:30:28.745Z,30.83
2023-05-15T13:32:56.162Z,30.91
2023-05-15T13:35:23.354Z,31.02
2023-05-15T13:37:50.606Z,31.15
2023-05-15T13:40:17.655Z,31.33
2023-05-15T13:42:44.695Z,31.30
2023-05-15T13:45:12.871Z,31.24
2023-05-15T13:47:39.958Z,31.35
2023-05-15T13:50:11.925Z,31.43
2023-05-15T13:52:39.338Z,31.41
2023-05-15T13:55:07.213Z,31.30
2023-05-15T13:57:34.146Z,31.26
2023-05-15T14:00:01.209Z,31.47
2023-05-15T14:02:28.914Z,31.71
2023-05-15T14:04:56.105Z,31.80
2023-05-15T14:07:23.352Z,31.96
2023-05-15T14:09:51.119Z,31.89
2023-05-15T14:12:18.370Z,31.92
2023-05-15T14:14:45.935Z,31.97
2023-05-15T14:17:14.123Z,31.94
2023-05-15T14:19:41.481Z,31.79
2023-05-15T14:22:08.610Z,31.89
2023-05-15T14:24:35.486Z,32.01
2023-05-15T14:27:02.494Z,32.29
2023-05-15T14:29:29.745Z,32.46
2023-05-15T14:31:56.725Z,32.34
2023-05-15T14:34:23.745Z,32.33
2023-05-15T14:36:51.105Z,32.36
2023-05-15T14:39:18.341Z,32.45
2023-05-15T14:41:45.799Z,32.57
2023-05-15T14:44:12.767Z,32.68
2023-05-15T14:46:42.371Z,32.53
2023-05-15T14:49:09.405Z,32.06
2023-05-15T14:51:36.333Z,31.54
2023-05-15T14:54:05.222Z,31.14
2023-05-15T14:56:32.487Z,30.84
2023-05-15T14:58:59.932Z,30.61
2023-05-15T15:01:27.290Z,30.39
2023-05-15T15:03:54.930Z,30.19
2023-05-15T15:06:22.096Z,30.00
2023-05-15T15:08:50.889Z,29.98
2023-05-15T15:11:17.828Z,30.08
2023-05-15T15:13:44.878Z,30.16
2023-05-15T15:16:11.848Z,30.07
2023-05-15T15:18:39.095Z,29.80
2023-05-15T15:21:05.989Z,29.42
2023-05-15T15:23:32.854Z,29.08
2023-05-15T15:26:00.002Z,28.78
2023-05-15T15:28:29.402Z,28.51
2023-05-15T15:30:56.349Z,28.26
2023-05-15T15:33:23.296Z,27.98
2023-05-15T15:35:50.126Z,27.70
2023-05-15T15:38:17.076Z,27.40
2023-05-15T15:40:44.227Z,27.15
2023-05-15T15:43:11.375Z,26.91
2023-05-15T15:45:38.439Z,26.72
2023-05-15T15:48:05.645Z,26.68
2023-05-15T15:50:32.820Z,26.80
2023-05-15T15:53:00.174Z,26.96
2023-05-15T15:55:27.117Z,27.13
2023-05-15T15:57:54.076Z,27.27
2023-05-15T16:00:21.001Z,27.39
2023-05-15T16:02:47.978Z,27.44
2023-05-15T16:05:15.319Z,27.34
2023-05-15T16:07:42.376Z,27.15
2023-05-15T16:10:13.172Z,26.92
2023-05-15T16:12:40.964Z,26.63
2023-05-15T16:15:21.486Z,26.35
2023-05-15T16:17:54.379Z,26.07
2023-05-15T16:20:22.842Z,25.82
2023-05-15T16:22:50.015Z,25.56
2023-05-15T16:25:17.077Z,25.28
2023-05-15T16:27:44.034Z,25.00
2023-05-15T16:30:11.780Z,24.72
2023-05-15T16:32:38.856Z,24.45
2023-05-15T16:35:06.570Z,24.18
2023-05-15T16:37:33.534Z,23.90
2023-05-15T16:40:01.039Z,23.57
2023-05-15T16:42:28.654Z,23.22
2023-05-15T16:44:55.906Z,22.88
2023-05-15T16:47:22.975Z,22.54
2023-05-15T16:49:50.580Z,22.20
2023-05-15T16:52:17.771Z,21.88
2023-05-15T16:54:44.704Z,21.61
2023-05-15T16:57:11.550Z,21.33
2023-05-15T16:59:38.490Z,21.06
2023-05-15T17:02:05.466Z,20.79
2023-05-15T17:04:35.378Z,20.55
2023-05-15T17:07:03.111Z,20.31
2023-05-15T17:09:30.056Z,20.09
2023-05-15T17:11:57.096Z,19.87
2023-05-15T17:14:24.043Z,19.65
2023-05-15T17:16:51.094Z,19.44
2023-05-15T17:19:18.188Z,19.21
2023-05-15T17:21:46.432Z,19.00
2023-05-15T17:24:16.027Z,18.80
2023-05-15T17:26:43.580Z,18.60
2023-05-15T17:29:11.134Z,18.40
2023-05-15T17:31:38.997Z,18.24
2023-05-15T17:34:06.050Z,18.11
2023-05-15T17:36:36.592Z,18.00
2023-05-15T17:39:04.055Z,17.90
2023-05-15T17:41:31.284Z,17.80
2023-05-15T17:43:58.227Z,17.69
2023-05-15T17:46:25.332Z,17.59
2023-05-15T17:48:53.651Z,17.46
2023-05-15T17:51:20.594Z,17.35
2023-05-15T17:53:48.468Z,17.23
2023-05-15T17:56:15.405Z,17.11
2023-05-15T17:58:42.250Z,17.00
2023-05-15T18:01:09.217Z,16.91
2023-05-15T18:03:36.197Z,16.83
2023-05-15T18:06:03.391Z,16.73
2023-05-15T18:08:30.433Z,16.63
2023-05-15T18:10:57.480Z,16.54
2023-05-15T18:13:24.649Z,16.43
2023-05-15T18:15:51.921Z,16.34
2023-05-15T18:18:19.031Z,16.26
2023-05-15T18:20:46.076Z,16.17
2023-05-15T18:23:13.022Z,16.09
2023-05-15T18:25:40.165Z,16.01
2023-05-15T18:28:07.426Z,15.93
2023-05-15T18:30:34.922Z,15.86
2023-05-15T18:33:01.856Z,15.79
2023-05-15T18:35:29.009Z,15.73
2023-05-15T18:37:56.014Z,15.68
2023-05-15T18:40:24.809Z,15.63
2023-05-15T18:42:51.857Z,15.57
2023-05-15T18:46:28.586Z,15.53
2023-05-15T18:48:56.192Z,15.47
2023-05-15T18:51:23.856Z,15.45
2023-05-15T18:53:50.905Z,15.42
2023-05-15T18:56:17.944Z,15.40
2023-05-15T18:58:47.502Z,15.39
2023-05-15T19:01:14.528Z,15.37
2023-05-15T19:03:41.461Z,15.38
2023-05-15T19:06:08.486Z,15.37
2023-05-15T19:08:35.431Z,15.37
2023-05-15T19:11:02.393Z,15.36
2023-05-15T19:13:32.802Z,15.35
2023-05-15T19:15:59.960Z,15.32
2023-05-15T19:18:26.897Z,15.29
2023-05-15T19:20:54.554Z,15.27
2023-05-15T19:23:21.519Z,15.28
2023-05-15T19:25:48.442Z,15.28
2023-05-15T19:28:15.613Z,15.29
2023-05-15T19:30:42.754Z,15.28
2023-05-15T19:33:09.671Z,15.28
2023-05-15T19:35:37.632Z,15.29
2023-05-15T19:38:05.019Z,15.31
2023-05-15T19:40:32.073Z,15.29
2023-05-15T19:42:59.005Z,15.28
2023-05-15T19:45:25.891Z,15.27
2023-05-15T19:47:53.177Z,15.27
2023-05-15T19:50:20.538Z,15.31
2023-05-15T19:52:47.698Z,15.43
2023-05-15T19:55:14.639Z,15.58
2023-05-15T19:57:44.947Z,15.68
2023-05-15T20:00:13.079Z,15.80
2023-05-15T20:02:41.559Z,15.89
2023-05-15T20:05:09.568Z,15.93
2023-05-15T20:07:37.039Z,15.94
2023-05-15T20:10:04.895Z,15.94
2023-05-15T20:12:31.840Z,15.97
2023-05-15T20:14:58.948Z,16.01
2023-05-15T20:17:25.895Z,16.04
2023-05-15T20:19:53.230Z,16.04
2023-05-15T20:22:20.237Z,16.05
2023-05-15T20:24:48.334Z,16.05
2023-05-15T20:27:15.177Z,16.13
2023-05-15T20:29:42.715Z,16.29
2023-05-15T20:32:09.697Z,16.41
2023-05-15T20:34:37.024Z,16.60
2023-05-15T20:37:03.969Z,16.88
2023-05-15T20:39:31.300Z,17.11
2023-05-15T20:41:58.656Z,17.30
2023-05-15T20:44:26.016Z,17.45
2023-05-15T20:46:53.060Z,17.63
2023-05-15T20:49:20.002Z,17.69
2023-05-15T20:51:48.989Z,17.72
2023-05-15T20:54:16.348Z,17.76
2023-05-15T20:56:44.423Z,17.78
2023-05-15T20:59:11.363Z,17.76
2023-05-15T21:01:38.322Z,17.72
2023-05-15T21:04:07.081Z,17.68
2023-05-15T21:06:34.657Z,17.59
2023-05-15T21:09:01.699Z,17.47
2023-05-15T21:11:28.966Z,17.34
2023-05-15T21:13:55.998Z,17.21
2023-05-15T21:16:23.064Z,17.04
2023-05-15T21:18:50.348Z,16.84
2023-05-15T21:21:17.445Z,16.64
2023-05-15T21:23:44.492Z,16.43
2023-05-15T21:26:11.543Z,16.24
2023-05-15T21:28:38.686Z,16.05
2023-05-15T21:31:07.450Z,15.91
2023-05-15T21:33:35.811Z,15.75
2023-05-15T21:36:06.286Z,15.62
2023-05-15T21:38:33.361Z,15.49
2023-05-15T21:41:01.201Z,15.36
2023-05-15T21:43:28.143Z,15.22
2023-05-15T21:45:56.151Z,15.10
2023-05-15T21:48:23.357Z,14.97
2023-05-15T21:50:50.929Z,14.85
2023-05-15T21:53:17.859Z,14.75
2023-05-15T21:55:44.717Z,14.64
2023-05-15T21:58:11.700Z,14.54
2023-05-15T22:00:40.025Z,14.42
2023-05-15T22:03:07.043Z,14.32
2023-05-15T22:05:34.533Z,14.21
2023-05-15T22:08:01.670Z,14.12
2023-05-15T22:10:28.716Z,14.03
2023-05-15T22:12:55.858Z,13.94
2023-05-15T22:15:22.911Z,13.84
2023-05-15T22:17:50.534Z,13.73
2023-05-15T22:20:18.902Z,13.64
2023-05-15T22:22:45.937Z,13.56
2023-05-15T22:25:12.947Z,13.47
2023-05-15T22:27:41.010Z,13.38
2023-05-15T22:30:08.984Z,13.30
2023-05-15T22:32:36.160Z,13.21
2023-05-15T22:35:03.825Z,13.12
2023-05-15T22:37:31.045Z,13.05
2023-05-15T22:39:57.983Z,12.97
2023-05-15T22:42:24.836Z,12.90
2023-05-15T22:44:51.742Z,12.83
2023-05-15T22:47:18.669Z,12.77
2023-05-15T22:49:45.759Z,12.73
2023-05-15T22:52:13.783Z,12.68
2023-05-15T22:54:41.183Z,12.63
2023-05-15T22:57:08.979Z,12.59
2023-05-15T22:59:36.610Z,12.57
2023-05-15T23:02:04.106Z,12.54
2023-05-15T23:04:31.115Z,12.50
2023-05-15T23:06:58.158Z,12.45
2023-05-15T23:09:25.104Z,12.42
2023-05-15T23:11:52.136Z,12.41
2023-05-15T23:14:19.138Z,12.40
2023-05-15T23:16:46.550Z,12.37
2023-05-15T23:19:13.450Z,12.33
2023-05-15T23:21:40.954Z,12.28
2023-05-15T23:24:08.216Z,12.25
2023-05-15T23:26:35.151Z,12.20
2023-05-15T23:29:02.242Z,12.14
2023-05-15T23:31:29.373Z,12.08
2023-05-15T23:33:56.725Z,12.03
2023-05-15T23:36:24.048Z,11.98
2023-05-15T23:38:51.092Z,11.93
2023-05-15T23:41:18.038Z,11.91
2023-05-15T23:43:44.857Z,11.89
2023-05-15T23:46:11.868Z,11.86
2023-05-15T23:48:39.185Z,11.83
2023-05-15T23:51:06.128Z,11.80
2023-05-15T23:53:33.070Z,11.77
2023-05-15T23:56:00.022Z,11.76
2023-05-15T23:58:26.957Z,11.77
